Time;durP1;ratioP1;P1;durP2;ratioP2;P2;SDS_P1;SDS_P2;PMS_P1;PMS_P2;Temp;Humidity;BMP_temperature;BMP_pressure;BME280_temperature;BME280_humidity;BME280_pressure;Samples;Min_cycle;Max_cycle;Signal;HPM_P1;HPM_P2
2022/03/03 00:02:05;;;;;;;97.30;59.22;;;;;;;17.42;100.00;98864.16;4930818;29;20131;-64
2022/03/03 00:04:55;;;;;;;106.35;58.88;;;;;;;17.40;100.00;98879.06;4930849;29;20083;-65
2022/03/03 00:07:44;;;;;;;108.07;63.55;;;;;;;17.36;100.00;98885.34;4939125;29;20059;-64
2022/03/03 00:10:39;;;;;;;105.07;60.90;;;;;;;17.33;100.00;98895.91;4951154;28;20042;-65
2022/03/03 00:13:27;;;;;;;92.72;57.20;;;;;;;17.16;100.00;98895.03;4949298;29;20455;-65
2022/03/03 00:16:16;;;;;;;90.90;54.78;;;;;;;17.02;100.00;98897.53;4937371;28;20044;-64
2022/03/03 00:18:59;;;;;;;82.18;50.53;;;;;;;16.97;100.00;98907.38;4910958;29;20044;-64
2022/03/03 00:21:47;;;;;;;81.60;48.00;;;;;;;16.84;100.00;98901.94;4911736;29;20163;-64
2022/03/03 00:24:30;;;;;;;88.63;49.50;;;;;;;16.73;100.00;98906.03;4924779;28;20056;-65
2022/03/03 00:27:20;;;;;;;76.10;47.05;;;;;;;16.75;100.00;98904.19;4926431;28;20468;-64
2022/03/03 00:30:03;;;;;;;76.10;47.13;;;;;;;16.79;100.00;98910.91;4911561;29;20048;-65
2022/03/03 00:32:51;;;;;;;77.18;46.92;;;;;;;16.79;100.00;98921.31;4921845;29;20047;-64
2022/03/03 00:35:33;;;;;;;85.80;46.67;;;;;;;16.65;100.00;98919.44;4930153;29;20063;-65
2022/03/03 00:38:22;;;;;;;79.82;48.30;;;;;;;16.58;100.00;98925.84;4911117;29;20575;-64
2022/03/03 00:41:04;;;;;;;79.53;46.58;;;;;;;16.57;100.00;98926.75;4915304;29;20461;-64
2022/03/03 00:43:53;;;;;;;75.50;45.92;;;;;;;16.50;100.00;98930.59;4923373;29;20066;-63
2022/03/03 00:46:48;;;;;;;74.68;47.40;;;;;;;16.42;100.00;98933.56;4912371;29;20440;-65
2022/03/03 00:49:24;;;;;;;71.00;46.65;;;;;;;16.38;100.00;98936.38;4929950;28;20052;-64
2022/03/03 00:52:18;;;;;;;78.80;48.15;;;;;;;16.39;100.00;98932.88;4929723;28;20047;-65
2022/03/03 00:54:54;;;;;;;78.38;48.42;;;;;;;16.34;100.00;98935.69;4930387;28;20067;-65
2022/03/03 00:57:48;;;;;;;76.25;48.45;;;;;;;16.32;100.00;98934.09;4918765;28;20044;-64
2022/03/03 01:00:24;;;;;;;85.50;49.33;;;;;;;16.26;100.00;98939.59;4925359;29;20929;-65
2022/03/03 01:03:13;;;;;;;77.10;47.87;;;;;;;16.23;100.00;98937.97;4927645;29;20071;-65
2022/03/03 01:05:55;;;;;;;77.00;48.08;;;;;;;16.27;100.00;98931.72;4915630;29;20056;-65
2022/03/03 01:08:50;;;;;;;71.78;47.17;;;;;;;16.31;100.00;98930.63;4941776;29;20055;-64
2022/03/03 01:11:32;;;;;;;71.75;46.63;;;;;;;16.20;100.00;98935.53;4947590;28;20051;-64
2022/03/03 01:14:23;;;;;;;85.55;48.13;;;;;;;16.21;100.00;98934.59;4928278;29;20172;-65
2022/03/03 01:17:04;;;;;;;74.30;46.08;;;;;;;16.17;100.00;98938.28;4929563;29;20051;-64
2022/03/03 01:19:52;;;;;;;75.35;46.25;;;;;;;16.24;100.00;98938.81;4928354;29;20067;-65
2022/03/03 01:22:34;;;;;;;74.60;46.88;;;;;;;16.20;100.00;98943.34;4918318;28;20059;-65
2022/03/03 01:25:23;;;;;;;85.88;49.65;;;;;;;16.22;100.00;98945.84;4923036;28;20086;-64
2022/03/03 01:28:06;;;;;;;78.30;48.75;;;;;;;16.15;100.00;98945.31;4921135;29;20052;-65
2022/03/03 01:30:55;;;;;;;74.70;46.25;;;;;;;16.25;100.00;98945.69;4917165;29;20354;-64
2022/03/03 01:33:36;;;;;;;77.90;46.47;;;;;;;16.32;100.00;98953.13;4910421;29;20172;-64
2022/03/03 01:36:25;;;;;;;78.63;46.22;;;;;;;16.30;100.00;98954.94;4909368;29;20084;-65
2022/03/03 01:39:07;;;;;;;70.35;44.92;;;;;;;16.29;100.00;98955.88;4908506;29;20056;-64
2022/03/03 01:41:59;;;;;;;83.03;44.60;;;;;;;16.32;100.00;98958.34;4913951;29;20203;-65
2022/03/03 01:44:43;;;;;;;73.15;44.30;;;;;;;16.43;100.00;98961.25;4928888;29;20271;-65
2022/03/03 01:47:33;;;;;;;71.55;43.83;;;;;;;16.38;100.00;98958.03;4920241;29;20059;-65
2022/03/03 01:50:15;;;;;;;62.63;41.58;;;;;;;16.33;100.00;98960.00;4910119;29;20067;-65
2022/03/03 01:53:04;;;;;;;67.93;40.45;;;;;;;16.39;100.00;98967.50;4928121;29;20059;-65
2022/03/03 01:55:46;;;;;;;64.57;39.65;;;;;;;16.39;100.00;98970.09;4927929;29;20063;-65
2022/03/03 01:58:35;;;;;;;59.55;39.40;;;;;;;16.47;100.00;98977.53;4928808;29;20071;-66
2022/03/03 02:01:17;;;;;;;62.50;39.03;;;;;;;16.55;100.00;98980.59;4925699;29;20241;-65
2022/03/03 02:04:09;;;;;;;68.43;38.08;;;;;;;16.61;100.00;98979.47;4926702;29;20055;-66
2022/03/03 02:06:50;;;;;;;61.20;38.92;;;;;;;16.75;100.00;98990.91;4910132;29;20054;-65
2022/03/03 02:09:47;;;;;;;55.05;36.35;;;;;;;16.78;100.00;98998.53;4919715;28;20464;-65
2022/03/03 02:12:35;;;;;;;58.15;35.67;;;;;;;16.71;100.00;98991.97;4916678;28;20476;-65
2022/03/03 02:15:39;;;;;;;55.38;33.28;;;;;;;16.80;100.00;98996.72;4916432;28;20131;-65
2022/03/03 02:18:28;;;;;;;50.22;33.40;;;;;;;16.90;100.00;98997.09;4919790;28;20066;-64
2022/03/03 02:21:22;;;;;;;50.38;31.83;;;;;;;16.88;100.00;98998.09;4923486;28;20104;-65
2022/03/03 02:24:05;;;;;;;50.13;31.23;;;;;;;16.91;100.00;99006.59;4907409;29;20087;-65
2022/03/03 02:26:54;;;;;;;56.78;32.22;;;;;;;17.01;100.00;99002.56;4921574;29;20067;-65
2022/03/03 02:29:37;;;;;;;49.20;32.97;;;;;;;17.02;100.00;99016.44;4916089;28;20055;-65
2022/03/03 02:32:25;;;;;;;55.28;36.03;;;;;;;16.90;100.00;99011.88;4913841;28;20044;-65
2022/03/03 02:35:09;;;;;;;58.95;39.00;;;;;;;16.85;100.00;99009.47;4915484;28;20522;-65
2022/03/03 02:37:58;;;;;;;62.42;42.15;;;;;;;16.87;100.00;99022.41;4927403;28;20412;-65
2022/03/03 02:40:40;;;;;;;61.00;40.55;;;;;;;17.02;100.00;99025.09;4926719;29;20231;-65
2022/03/03 02:43:29;;;;;;;53.92;34.35;;;;;;;16.98;100.00;99036.59;4926573;29;20080;-67
2022/03/03 02:46:11;;;;;;;50.45;32.45;;;;;;;17.00;100.00;99036.53;4907374;29;20078;-65
2022/03/03 02:49:00;;;;;;;49.50;31.02;;;;;;;17.10;100.00;99041.16;4908321;29;20052;-65
2022/03/03 02:51:42;;;;;;;49.20;30.48;;;;;;;17.31;100.00;99054.03;4906372;29;20048;-65
2022/03/03 02:54:31;;;;;;;43.90;29.52;;;;;;;17.42;100.00;99052.53;4924485;29;20065;-65
2022/03/03 03:00:20;;;;;;;39.55;25.45;;;;;;;17.51;100.00;99061.63;4926864;29;20062;-65
2022/03/03 03:03:02;;;;;;;43.00;25.02;;;;;;;17.44;100.00;99065.47;4927349;29;20047;-66
2022/03/03 03:05:52;;;;;;;51.08;26.02;;;;;;;17.45;100.00;99068.00;4926255;29;20058;-64
2022/03/03 03:08:34;;;;;;;52.17;26.40;;;;;;;17.62;100.00;99079.34;4942570;29;20063;-64
2022/03/03 03:11:29;;;;;;;47.97;24.60;;;;;;;17.40;100.00;99082.19;4947578;28;20055;-64
2022/03/03 03:14:17;;;;;;;39.72;21.33;;;;;;;17.34;100.00;99088.53;4945998;29;20713;-64
2022/03/03 03:17:05;;;;;;;31.45;20.08;;;;;;;17.30;100.00;99089.63;4909127;29;20127;-64
2022/03/03 03:19:47;;;;;;;37.78;21.83;;;;;;;17.14;100.00;99096.53;4923583;29;20059;-64
2022/03/03 03:22:36;;;;;;;34.53;22.27;;;;;;;17.14;100.00;99094.78;4926255;29;20094;-62
2022/03/03 03:25:18;;;;;;;43.97;25.45;;;;;;;17.16;100.00;99107.72;4927076;29;20634;-64
2022/03/03 03:28:07;;;;;;;34.92;22.73;;;;;;;17.10;100.00;99108.84;4927990;29;20066;-63
2022/03/03 03:30:49;;;;;;;36.67;22.02;;;;;;;17.13;100.00;99113.06;4924772;29;20503;-64
2022/03/03 03:33:38;;;;;;;42.13;22.52;;;;;;;17.18;100.00;99105.88;4923122;29;20048;-64
2022/03/03 03:36:20;;;;;;;36.72;21.13;;;;;;;17.24;100.00;99115.16;4926256;29;20055;-64
2022/03/03 03:39:09;;;;;;;42.20;20.40;;;;;;;17.28;100.00;99121.88;4922785;29;20054;-63
2022/03/03 03:41:51;;;;;;;28.73;17.58;;;;;;;17.05;100.00;99121.25;4917233;29;20138;-65
2022/03/03 03:44:39;;;;;;;30.58;17.17;;;;;;;17.03;100.00;99122.25;4920940;29;20066;-64
2022/03/03 03:47:21;;;;;;;27.60;16.40;;;;;;;17.04;100.00;99122.19;4927136;29;20075;-63
2022/03/03 03:50:11;;;;;;;26.63;16.80;;;;;;;17.18;100.00;99117.13;4918163;29;20135;-64
2022/03/03 03:52:53;;;;;;;29.23;17.92;;;;;;;17.36;100.00;99120.56;4908518;29;20048;-64
2022/03/03 03:55:42;;;;;;;33.08;17.38;;;;;;;17.14;100.00;99126.03;4914377;29;20055;-65
2022/03/03 03:58:24;;;;;;;27.25;16.02;;;;;;;17.07;100.00;99135.06;4927158;29;20062;-64
2022/03/03 04:01:13;;;;;;;37.38;16.48;;;;;;;17.06;100.00;99137.72;4926162;29;20494;-64
2022/03/03 04:03:55;;;;;;;22.92;15.32;;;;;;;16.97;100.00;99139.00;4916233;29;20055;-64
2022/03/03 04:06:43;;;;;;;37.65;15.70;;;;;;;16.84;100.00;99150.94;4926835;29;20118;-65
2022/03/03 04:09:31;;;;;;;30.70;15.45;;;;;;;16.76;100.00;99153.06;4934463;29;20056;-64
2022/03/03 04:12:26;;;;;;;36.00;15.77;;;;;;;16.65;100.00;99148.38;4926419;29;20062;-64
2022/03/03 04:15:02;;;;;;;28.20;13.98;;;;;;;16.57;100.00;99147.84;4921204;29;20139;-64
2022/03/03 04:17:57;;;;;;;31.77;15.43;;;;;;;16.52;100.00;99138.59;4922136;28;20059;-64
2022/03/03 04:20:33;;;;;;;23.55;14.73;;;;;;;16.50;100.00;99143.84;4928455;29;20059;-64
2022/03/03 04:23:28;;;;;;;25.70;15.97;;;;;;;16.24;100.00;99142.44;4923395;29;20051;-64
2022/03/03 04:26:04;;;;;;;27.42;16.48;;;;;;;16.18;100.00;99144.47;4926562;28;20290;-64
2022/03/03 04:28:58;;;;;;;33.90;18.27;;;;;;;16.04;100.00;99145.13;4933982;29;20048;-64
2022/03/03 04:31:33;;;;;;;36.63;20.85;;;;;;;16.01;100.00;99155.63;4919053;29;20575;-65
2022/03/03 04:34:28;;;;;;;40.63;21.52;;;;;;;15.94;100.00;99169.81;4912718;29;20056;-64
2022/03/03 04:37:04;;;;;;;42.10;22.38;;;;;;;15.89;100.00;99167.41;4919551;29;20461;-64
2022/03/03 04:39:59;;;;;;;42.72;23.77;;;;;;;15.85;100.00;99181.44;4920543;29;20061;-64
2022/03/03 04:42:35;;;;;;;43.03;24.42;;;;;;;15.77;100.00;99178.34;4926293;29;20048;-64
2022/03/03 04:45:30;;;;;;;42.97;23.87;;;;;;;15.67;100.00;99188.28;4916904;29;20741;-64
2022/03/03 04:48:06;;;;;;;39.65;24.15;;;;;;;15.69;100.00;99196.84;4928075;28;20054;-64
2022/03/03 04:51:00;;;;;;;44.20;27.15;;;;;;;15.71;100.00;99198.53;4925882;28;20044;-64
2022/03/03 04:53:35;;;;;;;47.08;27.42;;;;;;;15.71;100.00;99201.13;4924858;29;20061;-64
2022/03/03 04:56:30;;;;;;;47.40;26.73;;;;;;;15.81;100.00;99200.66;4921076;29;20047;-64
2022/03/03 04:59:08;;;;;;;47.25;28.27;;;;;;;15.80;100.00;99200.75;4903109;28;20055;-64
2022/03/03 05:01:56;;;;;;;46.47;29.63;;;;;;;15.68;100.00;99200.34;4907630;29;20047;-64
2022/03/03 05:04:38;;;;;;;51.90;30.40;;;;;;;15.75;100.00;99200.09;4916429;29;20059;-65
2022/03/03 05:07:34;;;;;;;49.88;30.60;;;;;;;15.54;100.00;99205.28;4916533;29;25430;-64
2022/03/03 05:10:10;;;;;;;46.08;30.30;;;;;;;15.70;100.00;99210.69;4922707;28;20146;-64
2022/03/03 05:13:02;;;;;;;53.85;28.90;;;;;;;15.60;100.00;99205.03;4906403;29;20048;-64
2022/03/03 05:15:46;;;;;;;51.08;27.80;;;;;;;15.56;100.00;99211.28;4904906;29;20040;-63
2022/03/03 05:18:35;;;;;;;44.40;27.40;;;;;;;15.55;100.00;99224.31;4926096;29;20099;-63
2022/03/03 05:21:17;;;;;;;42.83;27.02;;;;;;;15.57;100.00;99225.91;4919404;29;20640;-63
2022/03/03 05:24:06;;;;;;;44.70;26.30;;;;;;;15.66;100.00;99222.09;4920180;28;20044;-63
2022/03/03 05:26:54;;;;;;;42.28;23.85;;;;;;;15.49;100.00;99216.72;4925708;28;20047;-64
2022/03/03 05:29:50;;;;;;;40.53;21.95;;;;;;;15.41;100.00;99217.03;4915676;29;20067;-63
2022/03/03 05:32:26;;;;;;;36.75;20.10;;;;;;;15.39;100.00;99224.06;4918057;29;20060;-65
2022/03/03 05:35:22;;;;;;;38.92;19.38;;;;;;;15.44;100.00;99227.31;4919971;28;20062;-66
2022/03/03 05:37:58;;;;;;;37.55;18.73;;;;;;;15.28;100.00;99227.09;4924965;29;20058;-64
2022/03/03 05:40:53;;;;;;;34.58;17.80;;;;;;;15.36;100.00;99225.94;4929688;29;20062;-63
2022/03/03 05:43:29;;;;;;;35.10;16.05;;;;;;;15.36;100.00;99219.00;4938236;29;20071;-68
2022/03/03 05:46:18;;;;;;;31.80;17.13;;;;;;;15.35;100.00;99212.09;4922224;29;20051;-68
2022/03/03 05:49:01;;;;;;;26.60;16.67;;;;;;;15.28;100.00;99211.50;4923425;29;20047;-68
2022/03/03 05:51:49;;;;;;;28.92;16.38;;;;;;;15.40;100.00;99215.38;4922213;28;20051;-67
2022/03/03 05:54:37;;;;;;;26.80;17.15;;;;;;;15.56;100.00;99211.28;4925519;28;20902;-68
2022/03/03 05:57:45;;;;;;;32.35;17.67;;;;;;;15.51;100.00;99202.78;4929492;28;20119;-67
2022/03/03 06:00:21;;;;;;;28.85;17.10;;;;;;;15.48;100.00;99195.13;4933698;29;20130;-65
2022/03/03 06:03:14;;;;;;;28.73;17.88;;;;;;;15.49;100.00;99198.53;4924827;28;20051;-65
2022/03/03 06:06:00;;;;;;;29.13;17.30;;;;;;;15.54;100.00;99194.06;4933457;29;20044;-67
2022/03/03 06:09:08;;;;;;;32.08;18.48;;;;;;;15.47;100.00;99190.84;4924562;29;20055;-65
2022/03/03 06:12:02;;;;;;;26.90;17.88;;;;;;;15.48;100.00;99189.94;4926455;28;20067;-66
2022/03/03 06:14:58;;;;;;;37.10;17.40;;;;;;;15.54;100.00;99194.91;4919430;28;20062;-67
2022/03/03 06:17:44;;;;;;;30.55;17.60;;;;;;;15.46;100.00;99202.13;4918367;28;20147;-66
2022/03/03 06:20:34;;;;;;;31.52;18.98;;;;;;;15.48;100.00;99196.88;4920016;29;20139;-66
2022/03/03 06:23:15;;;;;;;36.83;19.30;;;;;;;15.51;100.00;99197.59;4918637;28;20480;-66
2022/03/03 06:26:13;;;;;;;28.35;18.70;;;;;;;15.51;100.00;99197.59;4921002;29;20294;-67
2022/03/03 06:28:56;;;;;;;32.42;18.65;;;;;;;15.59;100.00;99208.53;4922325;29;20075;-65
2022/03/03 06:31:45;;;;;;;30.98;19.42;;;;;;;15.69;100.00;99209.84;4916901;29;20058;-66
2022/03/03 06:34:27;;;;;;;25.30;17.45;;;;;;;15.64;100.00;99222.16;4923786;29;20098;-66
2022/03/03 06:37:15;;;;;;;25.58;16.00;;;;;;;15.57;100.00;99238.91;4920340;29;20060;-66
2022/03/03 06:39:58;;;;;;;27.17;15.65;;;;;;;15.58;100.00;99234.56;4920363;29;20061;-66
2022/03/03 06:42:48;;;;;;;31.38;14.73;;;;;;;15.59;100.00;99226.72;4924739;29;20054;-66
2022/03/03 06:45:30;;;;;;;22.77;14.15;;;;;;;15.54;100.00;99231.25;4920773;29;20048;-66
2022/03/03 06:48:19;;;;;;;25.73;14.77;;;;;;;15.59;100.00;99212.88;4922702;29;20066;-66
2022/03/03 06:51:04;;;;;;;25.40;16.25;;;;;;;15.49;100.00;99204.59;4924037;29;20138;-67
2022/03/03 06:53:56;;;;;;;24.77;16.00;;;;;;;15.43;100.00;99191.00;4921762;29;20040;-68
2022/03/03 06:56:47;;;;;;;25.95;15.35;;;;;;;15.47;100.00;99185.66;4925211;29;20091;-67
2022/03/03 06:59:37;;;;;;;28.52;16.55;;;;;;;15.33;100.00;99183.59;4922207;29;20051;-67
2022/03/03 07:02:23;;;;;;;26.55;16.13;;;;;;;15.32;100.00;99181.09;4924430;29;20143;-68
2022/03/03 07:05:12;;;;;;;26.52;17.05;;;;;;;15.37;100.00;99184.34;4922033;28;20428;-68
2022/03/03 07:07:55;;;;;;;27.23;17.52;;;;;;;15.44;100.00;99177.97;4919298;28;20595;-67
2022/03/03 07:10:42;;;;;;;29.33;17.13;;;;;;;15.34;100.00;99184.44;4910371;29;20115;-67
2022/03/03 07:13:24;;;;;;;27.00;17.42;;;;;;;15.45;100.00;99177.06;4908274;29;20076;-67
2022/03/03 07:16:42;;;;;;;31.00;17.60;;;;;;;15.51;100.00;99169.00;4907698;29;20055;-66
2022/03/03 07:19:27;;;;;;;29.02;16.92;;;;;;;15.54;100.00;99155.94;4907674;29;20058;-66
2022/03/03 07:22:41;;;;;;;32.15;17.90;;;;;;;15.43;100.00;99158.09;4906059;29;20067;-67
2022/03/03 07:25:40;;;;;;;27.95;16.80;;;;;;;15.32;100.00;99152.53;4907712;29;20052;-67
2022/03/03 07:28:24;;;;;;;28.37;16.37;;;;;;;15.33;100.00;99146.41;4907237;29;20494;-67
2022/03/03 07:31:17;;;;;;;27.10;17.02;;;;;;;15.43;100.00;99131.28;4907634;29;20139;-66
2022/03/03 07:34:08;;;;;;;28.83;17.02;;;;;;;15.50;100.00;99114.53;4900375;29;20088;-66
2022/03/03 07:36:53;;;;;;;25.55;16.80;;;;;;;15.45;100.00;99103.53;4908006;29;20139;-66
2022/03/03 07:39:52;;;;;;;30.00;16.63;;;;;;;15.42;100.00;99086.31;4892642;29;20056;-66
2022/03/03 07:42:41;;;;;;;28.85;16.67;;;;;;;15.42;100.00;99083.72;4904165;29;20056;-67
2022/03/03 07:45:23;;;;;;;26.67;17.55;;;;;;;15.44;100.00;99074.13;4905627;29;20632;-67
2022/03/03 07:48:13;;;;;;;30.95;18.77;;;;;;;15.40;100.00;99082.13;4906515;29;20048;-66
2022/03/03 07:50:57;;;;;;;29.92;17.20;;;;;;;15.51;100.00;99077.28;4907128;29;20108;-66
2022/03/03 07:53:44;;;;;;;30.50;17.80;;;;;;;15.47;100.00;99081.78;4912075;29;20087;-66
2022/03/03 07:56:34;;;;;;;33.67;18.73;;;;;;;15.36;100.00;99073.59;4911503;29;20048;-67
2022/03/03 07:59:18;;;;;;;32.97;18.70;;;;;;;15.55;100.00;99077.13;4911692;29;20060;-66
2022/03/03 08:02:12;;;;;;;33.45;19.45;;;;;;;15.61;100.00;99074.25;4910869;29;20056;-67
2022/03/03 08:04:55;;;;;;;33.95;20.50;;;;;;;15.63;100.00;99072.44;4910394;29;20048;-67
2022/03/03 08:07:49;;;;;;;31.83;21.10;;;;;;;15.65;100.00;99069.75;4901919;29;20056;-67
2022/03/03 08:10:40;;;;;;;33.38;20.70;;;;;;;15.62;100.00;99062.97;4913440;29;20044;-67
2022/03/03 08:13:30;;;;;;;31.95;20.25;;;;;;;15.84;100.00;99065.44;4922652;29;20068;-67
2022/03/03 08:16:11;;;;;;;36.80;20.98;;;;;;;15.97;100.00;99052.72;4902475;29;20769;-67
2022/03/03 08:19:10;;;;;;;34.90;20.48;;;;;;;15.80;100.00;99063.06;4927179;29;20043;-67
2022/03/03 08:21:46;;;;;;;33.22;20.15;;;;;;;15.82;100.00;99046.47;4929660;29;20060;-68
2022/03/03 08:24:43;;;;;;;36.60;20.83;;;;;;;16.04;100.00;99048.94;4929247;29;20174;-67
2022/03/03 08:27:21;;;;;;;37.78;21.75;;;;;;;16.12;100.00;99052.03;4922052;29;20103;-67
2022/03/03 08:30:13;;;;;;;31.10;20.80;;;;;;;15.98;100.00;99051.81;4918663;29;20048;-66
2022/03/03 08:33:05;;;;;;;39.22;22.83;;;;;;;16.05;100.00;99045.41;4921304;29;20059;-67
2022/03/03 08:35:57;;;;;;;48.65;27.02;;;;;;;15.99;100.00;99043.09;4912034;29;20138;-67
2022/03/03 08:38:53;;;;;;;48.85;26.40;;;;;;;16.13;100.00;99030.31;4928991;29;20155;-67
2022/03/03 08:41:37;;;;;;;40.92;26.33;;;;;;;16.32;100.00;99023.34;4915099;29;20063;-67
2022/03/03 08:44:42;;;;;;;63.70;34.00;;;;;;;16.22;100.00;99018.63;4919677;29;20110;-67
2022/03/03 08:47:39;;;;;;;55.40;33.53;;;;;;;16.36;100.00;99011.03;4920125;29;20044;-67
2022/03/03 08:50:14;;;;;;;73.00;37.95;;;;;;;16.36;100.00;99011.03;4919340;29;20130;-67
2022/03/03 08:53:08;;;;;;;87.90;46.47;;;;;;;16.38;100.00;99009.19;4922287;29;20150;-67
2022/03/03 08:55:50;;;;;;;86.07;46.80;;;;;;;16.43;100.00;99008.06;4919876;29;20123;-66
2022/03/03 08:58:39;;;;;;;101.57;53.92;;;;;;;16.59;100.00;99010.75;4914182;29;20087;-67
2022/03/03 09:01:22;;;;;;;107.78;57.50;;;;;;;16.53;100.00;99012.78;4919019;29;20051;-67
2022/03/03 09:04:17;;;;;;;104.47;57.33;;;;;;;16.55;100.00;99014.41;4898288;29;20127;-67
2022/03/03 09:06:52;;;;;;;103.75;55.30;;;;;;;16.74;100.00;99011.78;4921597;29;20361;-67
2022/03/03 09:09:48;;;;;;;97.63;53.33;;;;;;;16.74;100.00;98998.78;4914935;29;20920;-67
2022/03/03 09:12:31;;;;;;;98.70;51.22;;;;;;;16.71;100.00;98991.97;4910752;29;20048;-67
2022/03/03 09:15:21;;;;;;;101.75;55.22;;;;;;;16.99;100.00;98993.19;4925346;28;20071;-67
2022/03/03 09:18:08;;;;;;;98.28;52.53;;;;;;;17.06;100.00;98991.94;4929766;28;20052;-67
2022/03/03 09:20:57;;;;;;;97.15;51.75;;;;;;;17.07;100.00;98991.03;4910616;29;20072;-68
2022/03/03 09:23:42;;;;;;;81.20;43.00;;;;;;;17.04;100.00;98986.81;4912957;29;20666;-67
2022/03/03 09:26:31;;;;;;;73.32;38.38;;;;;;;16.93;100.00;98985.66;4922166;29;20048;-67
2022/03/03 09:29:19;;;;;;;64.95;35.30;;;;;;;17.02;100.00;98986.03;4919873;29;20052;-67
2022/03/03 09:32:12;;;;;;;61.67;33.63;;;;;;;17.35;100.00;98982.63;4918887;29;20079;-66
2022/03/03 09:34:54;;;;;;;44.95;27.30;;;;;;;17.09;100.00;98982.19;4920885;28;20078;-67
2022/03/03 09:37:43;;;;;;;45.58;24.30;;;;;;;17.00;100.00;98982.66;4915776;29;20104;-67
2022/03/03 09:40:25;;;;;;;36.22;19.55;;;;;;;17.08;100.00;98988.31;4913315;28;20055;-66
2022/03/03 09:43:15;;;;;;;42.75;20.02;;;;;;;16.89;100.00;98982.41;4918292;28;20071;-67
2022/03/03 09:45:57;;;;;;;35.42;19.30;;;;;;;17.08;100.00;98974.50;4910210;29;20115;-67
2022/03/03 09:48:46;;;;;;;41.88;20.10;;;;;;;17.43;100.00;98977.84;4914899;28;20056;-68
2022/03/03 09:51:28;;;;;;;36.65;20.55;;;;;;;17.61;100.00;98974.25;4913598;29;20151;-67
2022/03/03 09:54:18;;;;;;;33.15;19.63;;;;;;;17.55;100.00;98966.78;4908791;29;20095;-67
2022/03/03 09:57:00;;;;;;;39.88;20.55;;;;;;;17.42;100.00;98965.72;4879486;29;20048;-67
2022/03/03 09:59:52;;;;;;;34.00;19.17;;;;;;;17.52;100.00;98965.16;4912643;29;20659;-67
2022/03/03 10:02:57;;;;;;;35.53;20.13;;;;;;;17.62;100.00;98965.56;4915819;29;20724;-67
2022/03/03 10:05:48;;;;;;;33.92;19.50;;;;;;;17.75;100.00;98966.56;4920563;28;20130;-66
2022/03/03 10:08:31;;;;;;;34.30;18.58;;;;;;;17.85;100.00;98964.28;4908461;29;20052;-67
2022/03/03 10:11:26;;;;;;;40.47;22.05;;;;;;;17.82;100.00;98967.91;4926945;28;20056;-67
2022/03/03 10:14:02;;;;;;;40.90;21.50;;;;;;;18.08;100.00;98960.41;4912439;29;20472;-66
2022/03/03 10:16:56;;;;;;;39.55;23.58;;;;;;;18.24;100.00;98959.47;4928618;29;20048;-66
2022/03/03 10:19:56;;;;;;;37.47;22.83;;;;;;;18.13;100.00;98953.16;4911361;29;20052;-67
2022/03/03 10:22:59;;;;;;;36.85;23.13;;;;;;;18.10;100.00;98953.34;4924805;29;20051;-66
2022/03/03 10:25:48;;;;;;;34.10;20.23;;;;;;;18.09;100.00;98951.66;4919621;29;20064;-67
2022/03/03 10:28:39;;;;;;;28.08;18.63;;;;;;;18.05;100.00;98953.59;4919753;29;20044;-66
2022/03/03 10:31:28;;;;;;;32.88;19.42;;;;;;;18.17;100.00;98946.84;4915752;29;20060;-68
2022/03/03 10:34:10;;;;;;;33.50;18.70;;;;;;;17.92;100.00;98937.81;4905030;29;20048;-67
2022/03/03 10:37:07;;;;;;;33.35;17.05;;;;;;;17.87;100.00;98934.63;4919860;29;20465;-67
2022/03/03 10:39:52;;;;;;;26.35;14.82;;;;;;;17.68;100.00;98939.16;4920979;29;20111;-67
2022/03/03 10:42:50;;;;;;;16.20;12.40;;;;;;;17.77;100.00;98938.66;4919000;29;20322;-67
2022/03/03 10:45:34;;;;;;;17.95;11.52;;;;;;;17.66;100.00;98941.00;4918408;29;20134;-68
2022/03/03 10:48:24;;;;;;;23.95;12.13;;;;;;;17.85;100.00;98928.66;4920724;29;20538;-67
2022/03/03 10:51:13;;;;;;;15.63;9.38;;;;;;;17.88;100.00;98940.66;4922333;29;20099;-67
2022/03/03 10:54:03;;;;;;;14.55;9.60;;;;;;;18.03;100.00;98949.41;4920865;29;20055;-68
2022/03/03 10:57:12;;;;;;;16.50;8.68;;;;;;;17.94;100.00;98930.75;4915423;29;20052;-69
2022/03/03 10:59:57;;;;;;;14.68;8.73;;;;;;;17.88;100.00;98925.84;4914385;29;20383;-67
2022/03/03 11:02:51;;;;;;;14.23;8.45;;;;;;;17.82;100.00;98936.63;4922108;29;20059;-67
2022/03/03 11:05:41;;;;;;;17.95;8.75;;;;;;;17.88;100.00;98951.06;4919921;29;20052;-66
2022/03/03 11:08:22;;;;;;;19.98;8.20;;;;;;;17.85;100.00;98954.72;4924379;29;20134;-66
2022/03/03 11:11:17;;;;;;;16.65;9.10;;;;;;;17.90;100.00;98944.03;4926322;29;20488;-68
2022/03/03 11:14:06;;;;;;;17.33;10.48;;;;;;;17.84;100.00;98950.44;4908027;29;20105;-68
2022/03/03 11:16:54;;;;;;;25.52;12.02;;;;;;;17.72;100.00;98953.69;4925468;29;20056;-67
2022/03/03 11:19:38;;;;;;;25.20;11.75;;;;;;;17.81;100.00;98954.94;4927735;29;20071;-67
2022/03/03 11:22:28;;;;;;;23.48;11.88;;;;;;;17.91;100.00;98945.72;4926515;28;20043;-65
2022/03/03 11:25:33;;;;;;;25.23;12.68;;;;;;;17.94;100.00;98962.03;4916467;29;20152;-66
2022/03/03 11:28:21;;;;;;;34.22;15.05;;;;;;;17.73;100.00;98957.97;4921635;28;20056;-65
2022/03/03 11:31:26;;;;;;;24.35;14.10;;;;;;;17.79;100.00;98954.22;4922548;28;20183;-65
2022/03/03 11:34:34;;;;;;;34.33;12.55;;;;;;;17.68;100.00;98959.16;4919874;28;20043;-66
2022/03/03 11:37:22;;;;;;;33.42;12.60;;;;;;;17.76;100.00;98957.81;4923139;28;20082;-67
2022/03/03 11:40:12;;;;;;;25.42;12.15;;;;;;;17.71;100.00;98965.06;4919400;28;20051;-67
2022/03/03 11:42:53;;;;;;;22.75;11.95;;;;;;;17.68;100.00;98965.22;4922289;28;21628;-66
2022/03/03 11:45:43;;;;;;;24.25;12.60;;;;;;;17.70;100.00;98952.94;4920182;28;20127;-66
2022/03/03 11:48:38;;;;;;;27.17;14.02;;;;;;;17.78;100.00;98952.53;4924943;28;20149;-67
2022/03/03 11:51:42;;;;;;;24.45;13.95;;;;;;;17.64;100.00;98963.69;4921836;28;20146;-67
2022/03/03 11:54:38;;;;;;;38.63;15.80;;;;;;;17.62;100.00;98969.94;4919171;28;20482;-67
2022/03/03 11:57:28;;;;;;;34.15;17.58;;;;;;;17.54;100.00;98967.69;4919669;28;20142;-67
2022/03/03 12:00:16;;;;;;;34.60;21.13;;;;;;;17.56;100.00;98971.03;4919582;29;20469;-67
2022/03/03 12:03:13;;;;;;;43.70;22.30;;;;;;;17.54;100.00;98965.94;4918941;29;20656;-68
2022/03/03 12:06:11;;;;;;;51.67;26.30;;;;;;;17.62;100.00;98970.78;4920050;28;20058;-67
2022/03/03 12:09:00;;;;;;;49.25;25.70;;;;;;;17.55;100.00;98964.19;4919353;28;20054;-67
2022/03/03 12:11:43;;;;;;;48.67;27.05;;;;;;;17.46;100.00;98964.66;4917950;28;20131;-67
2022/03/03 12:14:40;;;;;;;43.15;27.42;;;;;;;17.60;100.00;98969.97;4917700;28;20119;-66
2022/03/03 12:17:41;;;;;;;57.05;31.17;;;;;;;17.44;100.00;98982.13;4927419;28;20150;-65
2022/03/03 12:20:35;;;;;;;58.50;30.33;;;;;;;17.41;100.00;98984.88;4924699;29;20056;-66
2022/03/03 12:23:35;;;;;;;55.00;30.15;;;;;;;17.46;100.00;98985.50;4927911;29;20050;-67
2022/03/03 12:26:11;;;;;;;47.33;24.80;;;;;;;17.24;100.00;98990.16;4888230;29;20516;-67
2022/03/03 12:29:01;;;;;;;50.90;24.75;;;;;;;17.27;100.00;98995.19;4910447;29;20056;-66
2022/03/03 12:31:42;;;;;;;35.28;21.25;;;;;;;17.23;100.00;98993.69;4929735;29;20757;-67
2022/03/03 12:34:31;;;;;;;40.30;19.70;;;;;;;17.11;100.00;98990.78;4928748;29;20067;-67
2022/03/03 12:37:13;;;;;;;41.50;21.65;;;;;;;17.19;100.00;98987.78;4929649;29;20959;-66
2022/03/03 12:40:04;;;;;;;45.28;21.63;;;;;;;17.19;100.00;98987.78;4924212;28;20079;-67
2022/03/03 12:42:47;;;;;;;41.40;20.30;;;;;;;17.10;100.00;98989.09;4916934;29;20119;-67
2022/03/03 12:45:37;;;;;;;30.42;17.75;;;;;;;17.01;100.00;98991.31;4917414;29;20051;-67
2022/03/03 12:48:31;;;;;;;40.20;17.73;;;;;;;17.12;100.00;98992.47;4919322;28;20052;-67